Terminal Aerodrome Forecast
Issued by NWS Cleveland, OH

Home | Current Version | Previous Version | Text Only | Print | Product List | Glossary Off
Versions: 1 2 3 4 5 6 7 8 9 10 11 12 13 14 15 16 17 18 19

967
FTUS41 KCLE 300529
TAFCAK
TAF
KCAK 300529Z 3006/0106 06004KT 6SM BR SKC
     FM300700 VRB03KT 3SM BR SKC
      TEMPO 3008/3011 2SM BR
     FM301100 08006KT P6SM BKN009 OVC012
     FM301400 10008KT P6SM SCT012 BKN150
     FM302300 08008KT 6SM -RA BR OVC035
     FM010200 12008KT 3SM -RA BR OVC009=

USA.gov is the U.S. government's official web portal to all federal, state and local government web resources and services.